Time;durP1;ratioP1;P1;durP2;ratioP2;P2;SDS_P1;SDS_P2;PMS_P1;PMS_P2;Temp;Humidity;BMP_temperature;BMP_pressure;BME280_temperature;BME280_humidity;BME280_pressure;Samples;Min_cycle;Max_cycle;Signal;HPM_P1;HPM_P2
2023/01/12 00:02:12;;;;;;;1999.90;999.90;;;;;;;7.88;100.00;100877.41;10332106;28;20057;-66
2023/01/12 00:07:15;;;;;;;1999.90;999.90;;;;;;;7.94;100.00;100891.94;10292971;28;20050;-66
2023/01/12 00:12:17;;;;;;;1999.90;999.90;;;;;;;7.93;100.00;100879.81;10292964;28;20499;-65
2023/01/12 00:17:20;;;;;;;1999.90;999.90;;;;;;;8.04;100.00;100871.50;10296448;28;20042;-66
2023/01/12 00:22:22;;;;;;;1999.90;999.90;;;;;;;7.94;100.00;100874.53;10332931;28;20054;-66
2023/01/12 00:27:24;;;;;;;1999.90;999.90;;;;;;;7.97;100.00;100863.13;10332733;28;20085;-66
2023/01/12 00:32:27;;;;;;;1999.90;999.90;;;;;;;7.97;100.00;100868.34;10332725;28;20047;-66
2023/01/12 00:37:29;;;;;;;1999.90;999.90;;;;;;;8.05;100.00;100863.59;10331628;28;20418;-66
2023/01/12 00:47:53;;;;;;;1999.90;999.90;;;;;;;8.03;100.00;100854.16;10331471;28;20054;-66
2023/01/12 00:52:55;;;;;;;1999.90;999.90;;;;;;;8.00;100.00;100853.41;10332612;28;20489;-66
2023/01/12 00:57:57;;;;;;;1999.90;999.90;;;;;;;8.23;100.00;100838.44;10339703;28;20559;-66
2023/01/12 01:02:59;;;;;;;1999.90;999.90;;;;;;;8.12;100.00;100838.09;10339897;28;20054;-66
2023/01/12 01:08:03;;;;;;;1999.90;999.90;;;;;;;8.10;100.00;100838.19;10339730;28;20125;-66
2023/01/12 01:13:06;;;;;;;1999.90;999.90;;;;;;;8.11;100.00;100833.81;10339675;28;20054;-66
2023/01/12 01:18:08;;;;;;;1999.90;999.90;;;;;;;8.07;100.00;100820.06;10338655;28;20046;-66
2023/01/12 01:23:10;;;;;;;1999.90;999.90;;;;;;;8.10;100.00;100817.31;10338410;28;20054;-66
2023/01/12 01:28:13;;;;;;;1999.90;999.90;;;;;;;8.15;100.00;100817.94;10338813;28;20050;-66
2023/01/12 01:33:16;;;;;;;1999.90;999.90;;;;;;;8.10;100.00;100812.09;10338330;28;20379;-66
2023/01/12 01:38:18;;;;;;;1999.90;999.90;;;;;;;8.25;100.00;100804.47;10337584;28;20112;-66
2023/01/12 01:43:22;;;;;;;1999.90;999.90;;;;;;;8.25;100.00;100794.03;10336538;28;20105;-66
2023/01/12 01:48:25;;;;;;;1999.90;999.90;;;;;;;8.16;100.00;100782.28;10338280;28;20096;-66
2023/01/12 01:53:31;;;;;;;1999.90;999.90;;;;;;;8.23;100.00;100788.03;10336381;28;20050;-66
2023/01/12 01:58:36;;;;;;;1999.90;999.90;;;;;;;8.09;100.00;100780.88;10336650;28;20077;-66
2023/01/12 02:03:39;;;;;;;1999.90;999.90;;;;;;;8.20;100.00;100778.59;10337154;28;20062;-67
2023/01/12 02:08:58;;;;;;;1999.90;999.90;;;;;;;8.21;100.00;100769.84;10336572;28;20046;-67
2023/01/12 02:19:36;;;;;;;1999.90;999.90;;;;;;;8.23;100.00;100768.00;10336519;28;20478;-66
2023/01/12 02:24:47;;;;;;;1999.90;999.90;;;;;;;8.23;100.00;100757.56;10335278;28;20120;-66
2023/01/12 02:30:07;;;;;;;1999.90;999.90;;;;;;;8.21;100.00;100776.84;10337316;28;20050;-65
2023/01/12 02:35:31;;;;;;;1999.90;999.90;;;;;;;8.26;100.00;100756.59;10333362;28;20523;-66
2023/01/12 02:41:02;;;;;;;1999.90;999.90;;;;;;;8.26;100.00;100743.56;10334251;28;20058;-66
2023/01/12 02:46:10;;;;;;;1999.90;999.90;;;;;;;8.31;100.00;100721.53;10295274;28;20490;-66
2023/01/12 02:51:23;;;;;;;1999.90;999.90;;;;;;;8.28;100.00;100706.03;10295794;28;20502;-66
2023/01/12 02:56:31;;;;;;;1999.90;999.90;;;;;;;8.26;100.00;100709.66;10344545;28;20497;-66
2023/01/12 03:01:33;;;;;;;1999.90;999.90;;;;;;;8.24;100.00;100699.28;10336080;28;20050;-66
2023/01/12 03:06:50;;;;;;;1999.90;999.90;;;;;;;8.17;100.00;100703.13;10349770;28;20053;-66
2023/01/12 03:11:54;;;;;;;1999.90;999.90;;;;;;;8.18;100.00;100686.53;10304880;28;20108;-65
2023/01/12 03:16:56;;;;;;;1999.90;999.90;;;;;;;8.27;100.00;100686.09;10333839;28;20042;-66
2023/01/12 03:22:04;;;;;;;1999.90;999.90;;;;;;;8.45;100.00;100676.53;10334268;28;20061;-66
2023/01/12 03:27:12;;;;;;;1999.90;999.90;;;;;;;8.26;100.00;100692.22;10332313;28;20104;-66
2023/01/12 03:32:14;;;;;;;1999.90;999.90;;;;;;;8.13;100.00;100672.88;10332697;28;20461;-66
2023/01/12 03:37:55;;;;;;;1999.90;999.90;;;;;;;8.25;100.00;100659.22;10334418;28;20116;-67
2023/01/12 03:43:05;;;;;;;1999.90;999.90;;;;;;;8.30;100.00;100635.53;10328188;28;20049;-66
2023/01/12 03:48:23;;;;;;;1999.90;999.90;;;;;;;8.24;100.00;100625.41;10340200;23;20097;-64
2023/01/12 03:53:26;;;;;;;1999.90;999.90;;;;;;;8.20;100.00;100619.50;10252118;29;20115;-64
2023/01/12 03:58:28;;;;;;;1999.90;999.90;;;;;;;8.24;100.00;100596.69;10269358;28;20103;-64
2023/01/12 04:03:30;;;;;;;1999.90;999.90;;;;;;;8.23;100.00;100608.06;10268686;28;20067;-64
2023/01/12 04:08:33;;;;;;;1999.90;999.90;;;;;;;8.32;100.00;100584.97;10252873;29;20047;-64
2023/01/12 04:13:35;;;;;;;1999.90;999.90;;;;;;;8.19;100.00;100569.09;10213482;29;20476;-64
2023/01/12 04:18:37;;;;;;;1999.90;999.90;;;;;;;8.21;100.00;100544.72;10214024;29;20091;-64
2023/01/12 04:23:40;;;;;;;1999.90;999.90;;;;;;;8.24;100.00;100557.59;10216173;29;20105;-63
2023/01/12 04:28:42;;;;;;;1999.90;999.90;;;;;;;8.28;100.00;100528.66;10254179;28;20399;-64
2023/01/12 04:33:44;;;;;;;1999.90;999.90;;;;;;;8.17;100.00;100507.53;10276394;28;20047;-63
2023/01/12 04:38:47;;;;;;;1999.90;999.90;;;;;;;8.22;100.00;100482.06;10260700;29;20102;-64
2023/01/12 04:43:49;;;;;;;1999.90;999.90;;;;;;;8.07;100.00;100465.44;10260677;29;20055;-63
2023/01/12 04:48:51;;;;;;;1999.90;999.90;;;;;;;8.08;100.00;100453.25;10259584;29;20059;-64
2023/01/12 04:53:53;;;;;;;1999.90;999.90;;;;;;;8.10;100.00;100447.03;10259619;29;20094;-63
2023/01/12 04:58:59;;;;;;;1999.90;999.90;;;;;;;8.13;100.00;100435.59;10259108;29;20052;-64
2023/01/12 05:04:01;;;;;;;1999.90;999.90;;;;;;;8.17;100.00;100424.09;10274600;28;20081;-63
2023/01/12 05:14:25;;;;;;;1999.90;999.90;;;;;;;8.12;100.00;100374.78;10258911;29;20483;-64
2023/01/12 05:19:27;;;;;;;1999.90;999.90;;;;;;;8.24;100.00;100404.56;10259107;29;20451;-64
2023/01/12 05:24:30;;;;;;;1999.90;999.90;;;;;;;8.29;100.00;100396.50;10259885;29;20051;-63
2023/01/12 05:29:32;;;;;;;1999.90;999.90;;;;;;;8.33;100.00;100403.22;10258252;29;20541;-63
2023/01/12 05:34:34;;;;;;;1999.90;999.90;;;;;;;8.29;100.00;100376.47;10257541;29;20510;-64
2023/01/12 05:39:37;;;;;;;1999.90;999.90;;;;;;;8.23;100.00;100357.69;10257653;28;20043;-63
2023/01/12 05:44:39;;;;;;;1999.90;999.90;;;;;;;8.22;100.00;100362.09;10258358;29;20055;-63
2023/01/12 05:49:41;;;;;;;1999.90;999.90;;;;;;;8.22;100.00;100356.00;10271806;28;20062;-64
2023/01/12 05:54:44;;;;;;;1999.90;999.90;;;;;;;8.37;100.00;100342.97;10257438;29;20486;-63
2023/01/12 05:59:46;;;;;;;1999.90;999.90;;;;;;;8.29;100.00;100336.50;10257568;29;20503;-63
2023/01/12 06:04:48;;;;;;;1999.90;999.90;;;;;;;8.28;100.00;100314.78;10257348;29;20402;-64
2023/01/12 06:09:51;;;;;;;1999.90;999.90;;;;;;;8.26;100.00;100311.44;10256805;28;20447;-64
2023/01/12 06:14:53;;;;;;;1999.90;999.90;;;;;;;8.25;100.00;100335.81;10257407;29;20055;-64
2023/01/12 06:19:55;;;;;;;1999.90;999.90;;;;;;;8.30;100.00;100325.13;10271024;28;20055;-63
2023/01/12 06:24:58;;;;;;;1999.90;999.90;;;;;;;8.30;100.00;100330.34;10254447;29;20491;-63
2023/01/12 06:30:00;;;;;;;1999.90;999.90;;;;;;;8.35;100.00;100331.81;10270884;28;20487;-64
2023/01/12 06:35:03;;;;;;;1999.90;999.90;;;;;;;8.38;100.00;100331.59;10255350;29;20047;-64
2023/01/12 06:40:19;;;;;;;1999.90;999.90;;;;;;;8.39;100.00;100329.84;10268783;28;20167;-64
2023/01/12 06:45:21;;;;;;;1999.90;999.90;;;;;;;8.40;100.00;100341.13;10256029;29;20118;-63
2023/01/12 06:50:24;;;;;;;1999.90;999.90;;;;;;;8.39;100.00;100348.13;10254909;29;20059;-64
2023/01/12 06:55:26;;;;;;;1999.90;999.90;;;;;;;8.46;100.00;100349.47;10269072;28;20044;-64
2023/01/12 07:00:29;;;;;;;1999.90;999.90;;;;;;;8.46;100.00;100338.22;10254398;29;20058;-64
2023/01/12 07:05:31;;;;;;;1999.90;999.90;;;;;;;8.54;100.00;100352.50;10270135;28;20055;-64
2023/01/12 07:10:35;;;;;;;1999.90;999.90;;;;;;;8.59;100.00;100334.00;10253735;29;20052;-63
2023/01/12 07:15:37;;;;;;;1999.90;999.90;;;;;;;8.59;100.00;100343.56;10251838;29;20498;-64
2023/01/12 07:20:40;;;;;;;1999.90;999.90;;;;;;;8.62;100.00;100340.78;10266846;28;20051;-64
2023/01/12 07:25:42;;;;;;;1999.90;999.90;;;;;;;8.77;100.00;100333.84;10254618;29;20110;-64
2023/01/12 07:30:45;;;;;;;1999.90;999.90;;;;;;;8.73;100.00;100349.69;10254596;29;20060;-65
2023/01/12 07:35:47;;;;;;;1999.90;999.90;;;;;;;8.73;100.00;100348.88;10253360;29;20054;-64
2023/01/12 07:40:49;;;;;;;1999.90;999.90;;;;;;;8.75;100.00;100365.28;10253764;29;20490;-64
2023/01/12 07:45:54;;;;;;;1999.90;999.90;;;;;;;8.86;100.00;100381.16;10254175;29;20062;-64
2023/01/12 07:50:58;;;;;;;1999.90;999.90;;;;;;;8.89;100.00;100385.38;10253224;28;20059;-64
2023/01/12 07:56:00;;;;;;;1999.90;999.90;;;;;;;8.91;100.00;100397.41;10253282;28;20055;-64
2023/01/12 08:01:03;;;;;;;1999.90;999.90;;;;;;;8.83;100.00;100389.16;10253117;29;20055;-64
2023/01/12 08:06:06;;;;;;;1999.90;999.90;;;;;;;8.76;100.00;100380.00;10258901;28;20055;-63
2023/01/12 08:11:09;;;;;;;1999.90;999.90;;;;;;;8.94;100.00;100409.44;10275665;28;20058;-64
2023/01/12 08:16:20;;;;;;;1999.90;999.90;;;;;;;8.96;100.00;100407.59;10261706;28;20113;-64
2023/01/12 08:21:25;;;;;;;1999.90;999.90;;;;;;;8.98;100.00;100410.09;10275665;28;20109;-64
2023/01/12 08:26:32;;;;;;;1999.90;999.90;;;;;;;8.91;100.00;100423.53;10261286;28;20047;-63
2023/01/12 08:31:35;;;;;;;1999.90;999.90;;;;;;;8.97;100.00;100418.88;10275949;28;20058;-64
2023/01/12 08:36:38;;;;;;;1999.90;999.90;;;;;;;8.97;100.00;100424.09;10275140;28;20051;-63
2023/01/12 08:41:41;;;;;;;1999.90;999.90;;;;;;;9.05;100.00;100442.78;10275571;28;20130;-63
2023/01/12 08:46:51;;;;;;;1999.90;999.90;;;;;;;9.01;100.00;100455.19;10260547;28;20126;-63
2023/01/12 08:51:54;;;;;;;1999.90;999.90;;;;;;;9.07;100.00;100454.81;10273496;28;20097;-63
2023/01/12 08:56:56;;;;;;;1999.90;999.90;;;;;;;9.07;100.00;100469.66;10281579;28;20509;-63
2023/01/12 09:01:59;;;;;;;1999.90;999.90;;;;;;;9.31;100.00;100449.13;10257819;28;20070;-64
2023/01/12 09:07:01;;;;;;;1999.90;999.90;;;;;;;9.16;100.00;100447.38;10257942;28;20057;-63
2023/01/12 09:12:04;;;;;;;1999.90;999.90;;;;;;;9.10;100.00;100449.44;10257493;29;20525;-63
2023/01/12 09:17:07;;;;;;;1999.90;999.90;;;;;;;9.21;100.00;100481.94;10273738;28;20043;-63
2023/01/12 09:22:09;;;;;;;1999.90;999.90;;;;;;;9.20;100.00;100459.38;10258644;28;20059;-63
2023/01/12 09:27:11;;;;;;;1999.90;999.90;;;;;;;9.19;100.00;100452.44;10256917;28;20055;-64
2023/01/12 09:32:14;;;;;;;1999.90;999.90;;;;;;;9.13;100.00;100468.47;10256434;29;20528;-63
2023/01/12 09:37:19;;;;;;;1999.90;999.90;;;;;;;9.21;100.00;100501.06;10257177;29;20051;-64
2023/01/12 09:47:55;;;;;;;1999.90;999.90;;;;;;;9.34;100.00;100482.09;10254291;28;20055;-64
2023/01/12 09:53:05;;;;;;;1999.90;999.90;;;;;;;9.40;100.00;100502.66;10248146;28;20522;-63
2023/01/12 09:58:23;;;;;;;1999.90;999.90;;;;;;;9.41;100.00;100506.91;10231256;29;20415;-63
2023/01/12 10:03:28;;;;;;;1999.90;999.90;;;;;;;9.33;100.00;100511.75;10267259;28;20052;-63
2023/01/12 10:08:30;;;;;;;1999.90;999.90;;;;;;;9.40;100.00;100515.72;10272385;28;20047;-63
2023/01/12 10:14:03;;;;;;;1999.90;999.90;;;;;;;9.47;100.00;100517.88;10255105;29;20051;-63
2023/01/12 10:19:31;;;;;;;1999.90;999.90;;;;;;;9.49;100.00;100512.56;10255865;29;20078;-63
2023/01/12 10:24:33;;;;;;;1999.90;999.90;;;;;;;9.48;100.00;100516.94;10271723;28;20047;-63
2023/01/12 10:29:36;;;;;;;1999.90;999.90;;;;;;;9.52;100.00;100533.28;10269560;28;20091;-63
2023/01/12 10:34:49;;;;;;;1999.90;999.90;;;;;;;9.69;100.00;100534.94;10256565;29;20055;-63
2023/01/12 10:39:51;;;;;;;1999.90;999.90;;;;;;;9.54;100.00;100539.25;10254494;29;20050;-63
2023/01/12 10:45:16;;;;;;;1999.90;999.90;;;;;;;9.68;100.00;100530.63;10270308;28;20051;-63
2023/01/12 10:50:34;;;;;;;1999.90;999.90;;;;;;;9.59;100.00;100539.84;10253277;29;20066;-64
2023/01/12 10:55:39;;;;;;;1999.90;999.90;;;;;;;9.75;100.00;100536.34;10278455;28;20102;-68
2023/01/12 11:00:46;;;;;;;1999.90;999.90;;;;;;;9.74;100.00;100526.84;10267717;28;20107;-69
2023/01/12 11:05:48;;;;;;;1999.90;999.90;;;;;;;9.63;100.00;100532.66;10267065;28;20086;-68
2023/01/12 11:10:51;;;;;;;1999.90;999.90;;;;;;;9.66;100.00;100527.25;10254675;29;20517;-68
2023/01/12 11:16:03;;;;;;;1999.90;999.90;;;;;;;9.71;100.00;100522.59;10253173;29;20055;-68
2023/01/12 11:21:08;;;;;;;1999.90;999.90;;;;;;;9.68;100.00;100530.63;10220882;28;20051;-68
2023/01/12 11:26:50;;;;;;;1999.90;999.90;;;;;;;9.67;100.00;100515.88;10229253;29;20066;-69
2023/01/12 11:31:55;;;;;;;1999.90;999.90;;;;;;;9.74;100.00;100519.00;10233045;29;20054;-68
2023/01/12 11:37:12;;;;;;;1999.90;999.90;;;;;;;9.79;100.00;100517.78;10268920;28;20047;-69
2023/01/12 11:47:51;;;;;;;1999.90;999.90;;;;;;;9.60;100.00;100518.00;10265533;28;20102;-68
2023/01/12 11:52:55;;;;;;;1999.90;999.90;;;;;;;9.68;100.00;100507.09;10268722;28;20098;-68
2023/01/12 11:58:21;;;;;;;1999.90;999.90;;;;;;;9.73;100.00;100506.84;10268832;28;20105;-69
2023/01/12 12:03:45;;;;;;;1999.90;999.90;;;;;;;9.77;100.00;100511.81;10268258;28;20054;-68
2023/01/12 12:09:33;;;;;;;1999.90;999.90;;;;;;;9.87;100.00;100509.50;10267900;28;20384;-68
2023/01/12 12:14:50;;;;;;;1999.90;999.90;;;;;;;9.83;100.00;100519.28;10251067;28;20451;-68
2023/01/12 12:20:12;;;;;;;1999.90;999.90;;;;;;;9.80;100.00;100513.38;10253619;29;20054;-69
2023/01/12 12:25:32;;;;;;;1999.90;999.90;;;;;;;9.84;100.00;100512.28;10267733;28;20446;-68
2023/01/12 12:30:56;;;;;;;1999.90;999.90;;;;;;;9.88;100.00;100498.09;10252668;29;20063;-68
2023/01/12 12:36:11;;;;;;;1999.90;999.90;;;;;;;9.98;100.00;100499.22;10253919;28;20082;-68
2023/01/12 12:46:40;;;;;;;1999.90;999.90;;;;;;;9.99;100.00;100489.63;10252823;29;20505;-67
2023/01/12 12:51:43;;;;;;;1999.90;999.90;;;;;;;9.95;100.00;100483.75;10272030;28;20051;-68
2023/01/12 12:56:46;;;;;;;1999.90;999.90;;;;;;;9.79;100.00;100465.47;10259185;29;20051;-68
2023/01/12 13:01:55;;;;;;;1999.90;999.90;;;;;;;9.97;100.00;100468.78;10274935;28;20110;-69
2023/01/12 13:07:04;;;;;;;1999.90;999.90;;;;;;;9.88;100.00;100469.31;10259289;29;20466;-69
2023/01/12 13:12:06;;;;;;;1999.90;999.90;;;;;;;9.86;100.00;100463.34;10258790;29;20094;-69
2023/01/12 13:17:32;;;;;;;1999.90;999.90;;;;;;;9.91;100.00;100450.84;10259605;29;20051;-69
2023/01/12 13:22:48;;;;;;;1999.90;999.90;;;;;;;9.83;100.00;100451.31;10253907;28;20066;-69
2023/01/12 13:27:59;;;;;;;1999.90;999.90;;;;;;;9.88;100.00;100437.13;10272106;28;20055;-69
2023/01/12 13:33:27;;;;;;;1999.90;999.90;;;;;;;9.87;100.00;100433.66;10258627;28;20451;-69
2023/01/12 13:38:37;;;;;;;1999.90;999.90;;;;;;;9.77;100.00;100438.59;10273176;28;20058;-68
2023/01/12 13:44:08;;;;;;;1999.90;999.90;;;;;;;9.74;100.00;100438.78;10256953;28;20476;-69
2023/01/12 13:49:29;;;;;;;1999.90;999.90;;;;;;;9.99;100.00;100437.31;10248904;28;20502;-69
2023/01/12 13:54:32;;;;;;;1999.90;999.90;;;;;;;9.89;100.00;100431.78;10272408;28;20059;-68
2023/01/12 13:59:35;;;;;;;1999.90;999.90;;;;;;;9.86;100.00;100445.03;10272876;28;20050;-68
2023/01/12 14:04:56;;;;;;;1999.90;999.90;;;;;;;9.94;100.00;100439.38;10255661;28;20051;-67
2023/01/12 14:10:05;;;;;;;1999.90;999.90;;;;;;;9.95;100.00;100435.78;10271563;28;20047;-69
2023/01/12 14:20:55;;;;;;;1999.90;999.90;;;;;;;9.89;100.00;100434.41;10256538;29;20415;-68
2023/01/12 14:26:10;;;;;;;1999.90;999.90;;;;;;;9.91;100.00;100444.78;10272159;28;20047;-68
2023/01/12 14:31:15;;;;;;;1999.90;999.90;;;;;;;9.92;100.00;100436.84;10256325;29;20435;-69
2023/01/12 14:36:30;;;;;;;1999.90;999.90;;;;;;;9.89;100.00;100425.72;10256394;29;20526;-68
2023/01/12 14:46:53;;;;;;;1999.90;999.90;;;;;;;9.95;100.00;100426.19;10268014;28;20058;-68
2023/01/12 14:51:57;;;;;;;1999.90;999.90;;;;;;;9.91;100.00;100409.00;10255627;29;20059;-70
2023/01/12 14:57:20;;;;;;;1999.90;999.90;;;;;;;9.87;100.00;100410.13;10270118;28;20063;-69
2023/01/12 15:02:38;;;;;;;1999.90;999.90;;;;;;;9.85;100.00;100401.50;10255032;29;20050;-69
2023/01/12 15:08:07;;;;;;;1999.90;999.90;;;;;;;9.98;100.00;100415.53;10269633;28;20391;-69
2023/01/12 15:13:24;;;;;;;1999.90;999.90;;;;;;;9.93;100.00;100401.88;10254354;28;20087;-69
2023/01/12 15:29:09;;;;;;;1999.90;999.90;;;;;;;9.89;100.00;100405.63;10267079;28;20051;-68
2023/01/12 15:34:12;;;;;;;1999.90;999.90;;;;;;;9.83;100.00;100409.47;10253854;28;20067;-67
2023/01/12 15:39:14;;;;;;;1999.90;999.90;;;;;;;9.96;100.00;100404.31;10253887;29;20051;-67
2023/01/12 15:44:20;;;;;;;1999.90;999.90;;;;;;;9.97;100.00;100382.47;10253695;29;20055;-69
2023/01/12 15:49:23;;;;;;;1999.90;999.90;;;;;;;10.07;100.00;100390.59;10251562;28;20050;-68
2023/01/12 15:54:25;;;;;;;1999.90;999.90;;;;;;;9.98;100.00;100409.47;10250295;28;20059;-69
2023/01/12 15:59:27;;;;;;;1999.90;999.90;;;;;;;10.00;100.00;100389.28;10250096;29;20051;-69
2023/01/12 16:04:30;;;;;;;1999.90;999.90;;;;;;;9.95;100.00;100386.97;10298972;23;20046;-72
2023/01/12 16:09:49;;;;;;;1999.90;999.90;;;;;;;10.07;100.00;100397.59;10333285;28;20171;-72
2023/01/12 16:14:51;;;;;;;1999.90;999.90;;;;;;;10.03;100.00;100381.25;10338219;28;20053;-72
2023/01/12 16:19:54;;;;;;;1999.90;999.90;;;;;;;10.05;100.00;100368.91;10366798;28;20046;-73
2023/01/12 16:24:56;;;;;;;1999.90;999.90;;;;;;;10.15;100.00;100374.41;10370456;28;20046;-72
2023/01/12 16:29:58;;;;;;;1999.90;999.90;;;;;;;10.19;100.00;100373.31;10372139;28;20109;-72
2023/01/12 16:35:01;;;;;;;1999.90;999.90;;;;;;;10.12;100.00;100377.22;10375187;28;20061;-73
2023/01/12 16:40:04;;;;;;;1999.90;999.90;;;;;;;10.13;100.00;100373.69;10348382;28;20058;-72
2023/01/12 16:45:06;;;;;;;1999.90;999.90;;;;;;;10.14;100.00;100373.59;10346850;28;20061;-72
2023/01/12 16:50:09;;;;;;;1999.90;999.90;;;;;;;9.99;100.00;100383.22;10357798;28;20054;-72
2023/01/12 16:55:12;;;;;;;1999.90;999.90;;;;;;;10.08;100.00;100383.59;10414485;28;20049;-72
2023/01/12 17:00:15;;;;;;;1999.90;999.90;;;;;;;10.06;100.00;100388.91;10359147;28;20046;-72
2023/01/12 17:05:19;;;;;;;1999.90;999.90;;;;;;;10.12;100.00;100388.53;10350095;28;20060;-71
2023/01/12 17:10:21;;;;;;;1999.90;999.90;;;;;;;10.05;100.00;100366.28;10369134;28;20042;-72
2023/01/12 17:15:23;;;;;;;1999.90;999.90;;;;;;;10.17;100.00;100347.25;10357391;28;20050;-72
2023/01/12 17:20:26;;;;;;;1999.90;999.90;;;;;;;10.09;100.00;100365.19;10375562;28;20172;-71
2023/01/12 17:25:29;;;;;;;1999.90;999.90;;;;;;;10.09;100.00;100370.41;10356872;28;20054;-72
2023/01/12 17:30:32;;;;;;;1999.90;999.90;;;;;;;10.03;100.00;100376.84;10379600;28;20050;-71
2023/01/12 17:35:34;;;;;;;1999.90;999.90;;;;;;;10.17;100.00;100370.78;10378384;28;20058;-71
2023/01/12 17:40:38;;;;;;;1999.90;999.90;;;;;;;10.17;100.00;100378.63;10393458;28;20057;-67
2023/01/12 17:45:42;;;;;;;1999.90;999.90;;;;;;;10.06;100.00;100377.63;10376493;28;20049;-67
2023/01/12 17:50:47;;;;;;;1999.90;999.90;;;;;;;10.12;100.00;100391.16;10376877;28;20054;-67
2023/01/12 17:55:50;;;;;;;1999.90;999.90;;;;;;;10.25;100.00;100369.47;10378814;28;20076;-67
2023/01/12 18:00:54;;;;;;;1999.90;999.90;;;;;;;10.01;100.00;100360.41;10378711;28;20046;-67
2023/01/12 18:05:56;;;;;;;1999.90;999.90;;;;;;;10.06;100.00;100354.91;10374748;28;20061;-67
2023/01/12 18:11:08;;;;;;;1999.90;999.90;;;;;;;10.02;100.00;100366.50;10338912;28;20138;-68
2023/01/12 18:16:12;;;;;;;1999.90;999.90;;;;;;;10.00;100.00;100358.75;10372933;28;20053;-67
2023/01/12 18:21:19;;;;;;;1999.90;999.90;;;;;;;10.05;100.00;100374.16;10352418;28;20082;-68
2023/01/12 18:26:28;;;;;;;1999.90;999.90;;;;;;;10.03;100.00;100368.16;10363858;28;20057;-68
2023/01/12 18:31:32;;;;;;;1999.90;999.90;;;;;;;10.00;100.00;100377.06;10346090;28;20104;-68
2023/01/12 18:36:39;;;;;;;1999.90;999.90;;;;;;;10.03;100.00;100383.88;10385067;28;20050;-68
2023/01/12 18:57:44;;;;;;;1999.90;999.90;;;;;;;10.04;100.00;100370.69;10367488;28;20053;-68
2023/01/12 19:02:47;;;;;;;1999.90;999.90;;;;;;;9.96;100.00;100369.50;10376437;28;20054;-67
2023/01/12 19:18:21;;;;;;;1999.90;999.90;;;;;;;10.14;100.00;100365.75;10337782;28;20050;-68
2023/01/12 19:28:44;;;;;;;1999.90;999.90;;;;;;;10.11;100.00;100368.53;10351862;28;20099;-68
2023/01/12 19:33:47;;;;;;;1999.90;999.90;;;;;;;10.03;100.00;100363.78;10334891;28;20050;-68
2023/01/12 19:38:52;;;;;;;1999.90;999.90;;;;;;;10.20;100.00;100362.75;10386982;28;20046;-68
2023/01/12 19:43:55;;;;;;;1999.90;999.90;;;;;;;10.06;100.00;100357.53;10375217;28;20057;-68
2023/01/12 19:48:57;;;;;;;1999.90;999.90;;;;;;;9.94;100.00;100358.31;10369172;28;20050;-68
2023/01/12 19:54:00;;;;;;;1999.90;999.90;;;;;;;10.02;100.00;100350.81;10373168;28;20413;-67
2023/01/12 19:59:02;;;;;;;1999.90;999.90;;;;;;;10.13;100.00;100361.44;10373818;28;20076;-68
2023/01/12 20:04:04;;;;;;;1999.90;999.90;;;;;;;10.01;100.00;100352.56;10353894;28;20568;-67
2023/01/12 20:09:07;;;;;;;1999.90;999.90;;;;;;;10.17;100.00;100364.69;10353136;28;20046;-68
2023/01/12 20:14:09;;;;;;;1999.90;999.90;;;;;;;10.05;100.00;100368.91;10351574;28;20046;-68
2023/01/12 20:19:12;;;;;;;1999.90;999.90;;;;;;;10.01;100.00;100368.25;10383714;28;20104;-68
2023/01/12 20:24:14;;;;;;;1999.90;999.90;;;;;;;10.21;100.00;100369.66;10372467;28;20057;-68
2023/01/12 20:29:17;;;;;;;1999.90;999.90;;;;;;;10.07;100.00;100332.19;10351777;28;20058;-68
2023/01/12 20:34:20;;;;;;;1999.90;999.90;;;;;;;10.09;100.00;100330.34;10332942;28;20410;-68
2023/01/12 20:39:22;;;;;;;1999.90;999.90;;;;;;;10.06;100.00;100312.22;10332827;28;20497;-68
2023/01/12 20:44:25;;;;;;;1999.90;999.90;;;;;;;10.03;100.00;100321.09;10387593;28;20405;-68
2023/01/12 20:49:27;;;;;;;1999.90;999.90;;;;;;;9.97;100.00;100316.25;10349266;28;20046;-68
2023/01/12 20:54:29;;;;;;;1999.90;999.90;;;;;;;10.02;100.00;100322.88;10332053;28;20055;-68
2023/01/12 20:59:32;;;;;;;1999.90;999.90;;;;;;;9.97;100.00;100313.63;10333100;28;20117;-67
2023/01/12 21:04:37;;;;;;;1999.90;999.90;;;;;;;10.12;100.00;100296.13;10332399;28;20063;-68
2023/01/12 21:09:39;;;;;;;1999.90;999.90;;;;;;;10.15;100.00;100288.09;10356037;28;20042;-68
2023/01/12 21:14:42;;;;;;;1999.90;999.90;;;;;;;10.02;100.00;100281.03;10378694;28;20049;-68
2023/01/12 21:19:44;;;;;;;1999.90;999.90;;;;;;;10.13;100.00;100280.34;10379672;28;20096;-69
2023/01/12 21:24:46;;;;;;;1999.90;999.90;;;;;;;9.91;100.00;100272.19;10351071;28;20059;-69
2023/01/12 21:29:48;;;;;;;1999.90;999.90;;;;;;;10.06;100.00;100276.44;10340599;28;20054;-68
2023/01/12 21:34:51;;;;;;;1999.90;999.90;;;;;;;10.11;100.00;100284.00;10338680;28;20058;-68
2023/01/12 21:39:53;;;;;;;1999.90;999.90;;;;;;;10.02;100.00;100283.66;10339102;28;20047;-68
2023/01/12 21:44:55;;;;;;;1999.90;999.90;;;;;;;9.86;100.00;100290.78;10340890;28;20054;-69
2023/01/12 21:49:58;;;;;;;1999.90;999.90;;;;;;;9.85;100.00;100300.41;10376134;28;20042;-68
2023/01/12 21:55:00;;;;;;;1999.90;999.90;;;;;;;9.78;100.00;100317.38;10379034;28;20108;-68
2023/01/12 22:00:04;;;;;;;1999.90;999.90;;;;;;;9.85;100.00;100312.63;10378185;28;20405;-69
2023/01/12 22:05:07;;;;;;;1999.90;999.90;;;;;;;9.96;100.00;100277.97;10375584;28;20058;-69
2023/01/12 22:10:19;;;;;;;1999.90;999.90;;;;;;;9.86;100.00;100303.84;10376109;28;20488;-68
2023/01/12 22:15:22;;;;;;;1999.90;999.90;;;;;;;9.88;100.00;100309.81;10377434;28;20057;-69
2023/01/12 22:20:26;;;;;;;1999.90;999.90;;;;;;;9.86;100.00;100299.44;10369910;28;20050;-68
2023/01/12 22:25:28;;;;;;;1999.90;999.90;;;;;;;9.83;100.00;100291.81;10376372;28;20493;-68
2023/01/12 22:30:31;;;;;;;1999.90;999.90;;;;;;;9.78;100.00;100293.84;10355412;28;20050;-68
2023/01/12 22:35:33;;;;;;;1999.90;999.90;;;;;;;9.82;100.00;100304.97;10336856;28;20051;-68
2023/01/12 22:40:35;;;;;;;1999.90;999.90;;;;;;;9.86;100.00;100312.53;10336088;28;20606;-68
2023/01/12 22:45:39;;;;;;;1999.90;999.90;;;;;;;9.85;100.00;100315.22;10361202;28;20046;-68
2023/01/12 22:50:41;;;;;;;1999.90;999.90;;;;;;;9.72;100.00;100301.25;10348604;28;20038;-68
2023/01/12 22:55:44;;;;;;;1999.90;999.90;;;;;;;9.72;100.00;100296.88;10376711;28;20053;-68
2023/01/12 23:00:47;;;;;;;1999.90;999.90;;;;;;;9.66;100.00;100276.31;10375904;28;20125;-68
2023/01/12 23:05:55;;;;;;;1999.90;999.90;;;;;;;9.61;100.00;100287.06;10375055;28;20054;-68
2023/01/12 23:11:09;;;;;;;1999.90;999.90;;;;;;;9.54;100.00;100298.00;10373835;28;20619;-68
2023/01/12 23:16:13;;;;;;;1999.90;999.90;;;;;;;9.58;100.00;100318.63;10365227;28;20101;-68
2023/01/12 23:21:18;;;;;;;1999.90;999.90;;;;;;;9.59;100.00;100307.22;10334652;28;20494;-68
2023/01/12 23:26:31;;;;;;;1999.90;999.90;;;;;;;9.61;100.00;100297.50;10366669;28;20046;-68
2023/01/12 23:31:34;;;;;;;1999.90;999.90;;;;;;;9.52;100.00;100305.09;10373722;28;20046;-68